Aérodrome :
LOGIN :

S'inscrire | Disclaimer

   EN    FR    IT 

 










Légende :    VFR   VFR Marginal   IFR   IFR Intensif   IFR Très Intensif
Visi : 
Plafond : 
>= 8 km
>= 3000ft
5 à 8 km
1000 à 3000 ft
1500m à 5 km
500 à 1000 ft
800 à 1500m
200 à 500 ft
< 800m
< 200 ft
Symboles :   Orages  Brouillard  Fortes neiges  Fortes précipitations  Vent > 20 kt
SIGMETs :   Divers  Orages  Givrage  Turbulence  Onde Orograph.  Cendres Volcan.







- Altitude de l'aérodrome : 348 ft
- Code IATA : STN
- Voir les cartes d'approche


EGSS - London Stansted

DERNIER METAR :
  • 121750Z AUTO 17007KT 9999 NCD M00/M02 Q1009

METARs EXPIRÉS :
  • 121720Z AUTO 19007KT 9999 NCD 00/M02 Q1009
  • 121650Z AUTO 20008KT 9999 NCD M00/M02 Q1009
  • 121620Z AUTO 20008KT 9999 NCD 00/M02 Q1009
  • 121550Z AUTO 20006KT 9999 NCD M00/M02 Q1009
  • 121520Z AUTO 20006KT 9999 NCD 00/M02 Q1009
  • 121450Z AUTO 20006KT 9999 NCD 01/M02 Q1009

TAF TAF EGSS
Valide du 12 à 18h jusqu'au 14 à 00h UTC


121713Z 1218/1324 22006KT 9999 FEW020
BECMG 1218/1221 6000
TEMPO 1220/1224 -RA BKN012
PROB30
TEMPO 1222/1302 23015G25KT
TEMPO 1300/1306 3000 RADZ BKN003
PROB30
TEMPO 1302/1307 0300 FG BKN001
BECMG 1303/1305 28010KT
BECMG 1306/1309 22012KT 9999 NSW SCT020
TEMPO 1310/1315 21015G25KT 7000 SHRA BKN009
PROB30
TEMPO 1310/1315 3000 +SHRA
BECMG 1315/1318 28015G25KT
BECMG 1318/1321 22012KT
TEMPO 1320/1324 21015G27KT 6000 SHRA BKN010
PROB30
TEMPO 1321/1324 3000 SHRA BKN006
ATIS : +44 1279 669 325
Pas de NOTAMs connus pour ce terrain.
1 SIGMET publié pour la FIR London (EGTT) :
 
Turbulence forte
EGTT SIGMET 03 VALID 121500/121900 EGRR
EGTT LONDON FIR SEV TURB FCST WI N5100 W00726 - N5207 W00519 - N4934 W00416 - N4926 W00456 - N4901 W00703 - N5100 W00726 FL200/420 MOV E 05KT NC=



MET'MAP, la Météo Aéronautique d'un coup d'oeil ! - Copyright ORBIFLY Décembre 2007 - Disclaimer

ORBIFLY MET'MAP TEAM :

Programmation & Développement : Alexandra Zaïnal
Conception & Développement : Baudouin d'Aumeries
Co-Programmation & Développement : Marc-Olivier Méhu
Soutien technique & logistique : Manuel Goepfert

Contact : metmap@orbifly.com




SOURCES & CREDITS :

   NOAA